Αρχική σελίδα
METAR-TAF:

METAR-TAF

Αεροδρόμια :

Mitiga International Airport

Τρίπολη, Λιβύη

γεωγραφικό πλάτος: 32-54N, γεωγραφικό μήκος: 13-17E, υψόμετρο: 11 μ

METAR: λείπει

Χρόνος: 07:47 (05:47 UTC)

Πρόγνωση Καιρού

Η αναφορά έγινε 18 ώρες και 47 λεπτά πριν, στις 11:00 UTC
Η πρόγνωση ισχύει από τις 10 στις 12 UTC έως τις 11 στις 12 UTC
Άνεμος 12 kt από Δ/ΝΔ
Ορατότητα: 8000 μ
Λίγα νέφη σε ύψος 2500 πόδια
Διάσπαρτα νέφη σε ύψος 7000 πόδια
Καθιστάμενος
από 10 στις 18 UTC έως τις 10 στις 20 UTC
Άνεμος 2 kt από μεταβλητές κατευθύνσεις

TAF: HLLM 101100Z 1012/1112 25012KT 8000 FEW025 SCT070 BECMG 1018/1020 VRB02KT

Μετεωρολογικές αναφορές και προγνώσεις για περισσότερα από 4000 αεροδρόμια (δελτία METAR και TAF).

Οι διαθέσιμοι σταθμοί απεικονίζονται στο χάρτη με κίτρινες και κόκκινες κουκκίδες.

Μετακινήστε το ποντίκι πάνω από τις κουκκίδες για να δείτε το όνομα του σταθμού.

Στη συνέχεια, κάντε κλικ για να δείτε τις μετεωρολογικές αναφορές και τις προγνώσεις καιρού.

Για να αλλάξετε το χάρτη: κάντε κλικ στα πράσινα κουμπιά με τον μαύρο σταυρό για να ζουμάρετε, στο πράσινο κουμπί με την παύλα για να αφαιρέσετε το ζουμ ή στα πράσινα βέλη για να αντιπαραβάλλετε χάρτες.


METAR-TAF: